Time;durP1;ratioP1;P1;durP2;ratioP2;P2;SDS_P1;SDS_P2;PMS_P1;PMS_P2;Temp;Humidity;BMP_temperature;BMP_pressure;BME280_temperature;BME280_humidity;BME280_pressure;Samples;Min_cycle;Max_cycle;Signal;HPM_P1;HPM_P2
2022/07/01 00:02:10;;;;;;;9.43;5.90;;;;;;;19.97;100.00;100420.63;5024071;28;20438;-83
2022/07/01 00:04:44;;;;;;;8.73;5.85;;;;;;;19.91;100.00;100418.44;5028565;28;20426;-84
2022/07/01 00:07:37;;;;;;;8.80;6.17;;;;;;;19.93;100.00;100425.22;5021439;28;20423;-84
2022/07/01 00:10:12;;;;;;;9.75;5.93;;;;;;;19.90;100.00;100428.72;5028781;28;20429;-85
2022/07/01 00:12:46;;;;;;;9.25;5.80;;;;;;;19.92;100.00;100429.16;5027299;28;20437;-84
2022/07/01 00:15:19;;;;;;;9.77;6.13;;;;;;;19.82;100.00;100440.69;5028908;28;20427;-84
2022/07/01 00:17:52;;;;;;;9.52;5.90;;;;;;;19.81;100.00;100448.16;5027614;28;20793;-85
2022/07/01 00:20:25;;;;;;;9.18;5.93;;;;;;;19.78;100.00;100445.28;5026308;28;20431;-84
2022/07/01 00:22:59;;;;;;;8.77;6.15;;;;;;;19.81;100.00;100456.44;5037340;28;20442;-83
2022/07/01 00:25:33;;;;;;;9.07;6.70;;;;;;;19.80;100.00;100465.84;5032376;28;20431;-82
2022/07/01 00:28:01;;;;;;;8.93;6.22;;;;;;;19.89;100.00;100532.03;5028682;28;20439;-83
2022/07/01 00:30:34;;;;;;;9.75;6.38;;;;;;;19.90;100.00;100541.94;5025883;28;20430;-82
2022/07/01 00:33:08;;;;;;;8.77;5.80;;;;;;;19.93;100.00;100493.47;5028473;28;20920;-83
2022/07/01 00:35:41;;;;;;;8.77;5.95;;;;;;;19.95;100.00;100510.50;5035187;28;20426;-83
2022/07/01 00:38:14;;;;;;;8.50;5.95;;;;;;;20.00;100.00;100544.22;5027586;28;20426;-83
2022/07/01 00:40:54;;;;;;;9.20;6.03;;;;;;;20.01;100.00;100526.50;5028417;28;20765;-84
2022/07/01 00:43:27;;;;;;;8.82;5.95;;;;;;;20.04;100.00;100495.41;5033684;28;20442;-83
2022/07/01 00:46:01;;;;;;;8.17;5.67;;;;;;;20.08;100.00;100536.13;5035606;28;20436;-83
2022/07/01 00:48:37;;;;;;;9.35;5.55;;;;;;;20.12;100.00;100545.34;5032491;28;20436;-83
2022/07/01 00:51:10;;;;;;;9.20;5.72;;;;;;;20.13;100.00;100544.19;5033710;28;20419;-85
2022/07/01 00:53:44;;;;;;;8.20;5.85;;;;;;;20.21;100.00;100557.84;5028368;28;20423;-83
2022/07/01 00:56:20;;;;;;;9.45;5.82;;;;;;;20.24;100.00;100556.34;5013483;28;20805;-84
2022/07/01 00:58:53;;;;;;;9.35;5.90;;;;;;;20.33;100.00;100553.47;5021067;28;20427;-83
2022/07/01 01:01:26;;;;;;;8.98;5.90;;;;;;;20.48;100.00;100538.91;5028336;28;20424;-83
2022/07/01 01:04:00;;;;;;;8.35;5.43;;;;;;;20.51;100.00;100543.75;5038179;28;20444;-83
2022/07/01 01:06:34;;;;;;;8.02;5.80;;;;;;;20.50;100.00;100536.59;5030543;28;20929;-83
2022/07/01 01:09:07;;;;;;;7.97;5.32;;;;;;;20.51;100.00;100540.97;5024158;28;20943;-83
2022/07/01 01:11:42;;;;;;;9.20;5.85;;;;;;;20.47;100.00;100533.75;5026604;28;20430;-84
2022/07/01 01:14:15;;;;;;;8.32;5.45;;;;;;;20.50;100.00;100547.66;5024072;28;20436;-83
2022/07/01 01:16:48;;;;;;;7.18;5.25;;;;;;;20.54;100.00;100536.72;5021058;28;20442;-83
2022/07/01 01:19:22;;;;;;;8.43;5.45;;;;;;;20.53;100.00;100511.00;5027689;28;20423;-83
2022/07/01 01:21:56;;;;;;;7.95;5.30;;;;;;;20.55;100.00;100502.38;5023966;28;20959;-83
2022/07/01 01:24:29;;;;;;;8.82;5.47;;;;;;;20.58;100.00;100487.84;5023305;28;20839;-82
2022/07/01 01:27:03;;;;;;;9.80;5.40;;;;;;;20.49;100.00;100467.84;5023999;28;20916;-82
2022/07/01 01:29:37;;;;;;;8.00;5.70;;;;;;;20.45;100.00;100481.56;5024543;28;20766;-82
2022/07/01 01:32:11;;;;;;;9.63;5.95;;;;;;;20.17;100.00;100464.97;5023849;28;20978;-81
2022/07/01 01:34:40;;;;;;;8.50;5.88;;;;;;;19.85;100.00;100457.34;5027138;28;20453;-81
2022/07/01 01:37:15;;;;;;;8.13;5.88;;;;;;;19.99;100.00;100450.66;5025956;28;20426;-81
2022/07/01 01:39:48;;;;;;;9.10;6.20;;;;;;;19.91;100.00;100446.06;5024730;28;20425;-81
2022/07/01 01:42:21;;;;;;;9.50;6.53;;;;;;;19.86;100.00;100466.44;5022886;28;20990;-81
2022/07/01 01:44:55;;;;;;;8.68;6.13;;;;;;;19.85;100.00;100467.59;5024785;28;20415;-81
2022/07/01 01:47:28;;;;;;;9.65;6.60;;;;;;;19.61;100.00;100469.22;5014785;28;20954;-81
2022/07/01 01:50:01;;;;;;;9.60;5.90;;;;;;;19.62;100.00;100450.69;5023234;28;20419;-81
2022/07/01 01:52:37;;;;;;;9.18;6.15;;;;;;;19.76;100.00;100440.09;5030002;28;21241;-80
2022/07/01 01:55:11;;;;;;;8.82;6.28;;;;;;;19.83;100.00;100425.72;5045550;28;20429;-81
2022/07/01 01:57:44;;;;;;;8.25;5.80;;;;;;;19.84;100.00;100410.75;5026008;28;21231;-81
2022/07/01 02:00:13;;;;;;;9.68;6.03;;;;;;;19.83;100.00;100409.13;5026434;28;20430;-81
2022/07/01 02:02:46;;;;;;;8.88;6.10;;;;;;;19.75;100.00;100415.56;5023454;28;20449;-81
2022/07/01 02:05:20;;;;;;;8.57;6.18;;;;;;;19.68;100.00;100407.91;5021457;28;20445;-81
2022/07/01 02:07:54;;;;;;;9.00;6.33;;;;;;;19.62;100.00;100420.31;5016384;28;20434;-81
2022/07/01 02:10:27;;;;;;;9.18;6.20;;;;;;;19.49;100.00;100427.81;5027476;28;20430;-81
2022/07/01 02:13:00;;;;;;;9.32;6.07;;;;;;;19.56;100.00;100425.28;5019560;28;20516;-81
2022/07/01 02:15:34;;;;;;;8.80;6.33;;;;;;;19.60;100.00;100431.72;5018671;28;20426;-81
2022/07/01 02:18:07;;;;;;;9.02;6.03;;;;;;;19.60;100.00;100423.44;5027561;28;20418;-81
2022/07/01 02:20:40;;;;;;;9.27;6.53;;;;;;;19.54;100.00;100420.09;5027576;28;20419;-80
2022/07/01 02:23:10;;;;;;;9.15;6.50;;;;;;;19.46;100.00;100426.56;5019047;28;20418;-81
2022/07/01 02:25:44;;;;;;;8.45;5.95;;;;;;;19.50;100.00;100426.66;5026247;28;20434;-82
2022/07/01 02:28:17;;;;;;;9.85;6.45;;;;;;;19.49;100.00;100430.59;5018160;28;20429;-81
2022/07/01 02:30:50;;;;;;;9.87;6.80;;;;;;;19.53;100.00;100429.53;5028954;28;20427;-81
2022/07/01 02:33:24;;;;;;;11.55;6.57;;;;;;;19.45;100.00;100430.47;5029744;28;20415;-81
2022/07/01 02:35:52;;;;;;;10.40;7.20;;;;;;;19.36;100.00;100425.06;5031206;28;20430;-81
2022/07/01 02:38:27;;;;;;;8.63;6.60;;;;;;;19.39;100.00;100429.09;5020653;28;20499;-81
2022/07/01 02:41:00;;;;;;;9.15;6.45;;;;;;;19.45;100.00;100440.72;5030909;28;20422;-81
2022/07/01 02:43:33;;;;;;;9.07;6.38;;;;;;;19.40;100.00;100440.94;5029942;28;20431;-81
2022/07/01 02:46:06;;;;;;;9.23;6.65;;;;;;;19.41;100.00;100450.81;5030883;28;20414;-81
2022/07/01 02:48:39;;;;;;;8.95;6.30;;;;;;;19.39;100.00;100459.44;5028627;28;20431;-82
2022/07/01 02:51:12;;;;;;;10.13;6.53;;;;;;;19.41;100.00;100453.59;5032955;28;20423;-81
2022/07/01 02:53:47;;;;;;;8.70;6.40;;;;;;;19.46;100.00;100456.09;5049251;28;20421;-81
2022/07/01 02:56:15;;;;;;;8.43;6.45;;;;;;;19.52;100.00;100460.25;5050782;28;20913;-81
2022/07/01 02:58:48;;;;;;;8.55;6.30;;;;;;;19.49;100.00;100455.41;5029587;28;20430;-81
2022/07/01 03:01:16;;;;;;;9.10;6.28;;;;;;;19.59;100.00;100467.94;5030929;28;20418;-81
2022/07/01 03:03:50;;;;;;;8.93;6.50;;;;;;;19.57;100.00;100470.22;5030650;28;20419;-81
2022/07/01 03:06:23;;;;;;;9.35;6.13;;;;;;;19.47;100.00;100477.03;5029029;28;20431;-81
2022/07/01 03:08:57;;;;;;;9.00;5.80;;;;;;;19.36;100.00;100479.44;5017035;28;20427;-80
2022/07/01 03:11:26;;;;;;;8.27;5.60;;;;;;;19.49;100.00;100481.06;5029071;28;20425;-81
2022/07/01 03:13:54;;;;;;;9.90;5.40;;;;;;;19.47;100.00;100477.03;5019426;28;20777;-81
2022/07/01 03:16:27;;;;;;;9.37;5.60;;;;;;;19.37;100.00;100484.63;5027994;28;20903;-81
2022/07/01 03:18:56;;;;;;;8.45;5.30;;;;;;;19.24;100.00;100483.00;5021213;28;20435;-81
2022/07/01 03:21:29;;;;;;;7.93;5.10;;;;;;;19.24;100.00;100477.50;5018836;28;20428;-80
2022/07/01 03:24:04;;;;;;;7.78;5.07;;;;;;;19.43;100.00;100489.91;5009002;28;20432;-81
2022/07/01 03:26:37;;;;;;;9.05;5.50;;;;;;;19.46;100.00;100491.97;5009350;28;20437;-81
2022/07/01 03:29:11;;;;;;;8.60;5.30;;;;;;;19.38;100.00;100502.00;5026205;28;20431;-81
2022/07/01 03:31:39;;;;;;;8.55;5.43;;;;;;;19.31;100.00;100505.31;5024558;28;20442;-80
2022/07/01 03:34:07;;;;;;;7.85;5.10;;;;;;;19.38;100.00;100505.53;5027011;28;20422;-80
2022/07/01 03:36:40;;;;;;;6.75;4.90;;;;;;;19.32;100.00;100511.63;5031050;28;20427;-80
2022/07/01 03:39:15;;;;;;;8.63;4.97;;;;;;;19.40;100.00;100526.47;5033172;28;20426;-80
2022/07/01 03:41:48;;;;;;;8.65;4.85;;;;;;;19.44;100.00;100516.34;5030372;28;20427;-80
2022/07/01 03:44:21;;;;;;;8.30;5.00;;;;;;;19.47;100.00;100526.69;5025379;28;20470;-80
2022/07/01 03:46:55;;;;;;;7.93;5.00;;;;;;;19.37;100.00;100545.34;5026974;28;20414;-81
2022/07/01 03:49:28;;;;;;;7.78;4.90;;;;;;;19.27;100.00;100542.22;5025864;28;20871;-82
2022/07/01 03:52:01;;;;;;;7.28;4.97;;;;;;;19.26;100.00;100555.19;5028528;28;20506;-84
2022/07/01 03:54:38;;;;;;;7.53;4.73;;;;;;;19.22;100.00;100556.22;5026846;28;20434;-82
2022/07/01 03:57:11;;;;;;;8.98;4.57;;;;;;;19.08;100.00;100551.81;5022463;28;20442;-81
2022/07/01 03:59:46;;;;;;;7.93;4.33;;;;;;;19.15;100.00;100543.00;5031025;28;20426;-81
2022/07/01 04:02:19;;;;;;;7.50;3.92;;;;;;;19.07;100.00;100546.66;5029394;28;20429;-84
2022/07/01 04:04:52;;;;;;;6.83;4.23;;;;;;;18.97;100.00;100545.91;5031647;28;20427;-81
2022/07/01 04:07:26;;;;;;;7.00;4.13;;;;;;;18.84;100.00;100544.25;5021807;28;20796;-83
2022/07/01 04:09:55;;;;;;;6.43;4.05;;;;;;;18.62;100.00;100556.47;5032550;28;20479;-83
2022/07/01 04:12:29;;;;;;;7.65;3.97;;;;;;;18.59;100.00;100548.84;5028476;28;20439;-83
2022/07/01 04:15:03;;;;;;;6.20;3.63;;;;;;;18.66;100.00;100546.38;5029073;28;21188;-86
2022/07/01 04:17:36;;;;;;;8.03;3.73;;;;;;;18.55;100.00;100532.19;5028729;28;20418;-83
2022/07/01 04:20:10;;;;;;;6.95;3.63;;;;;;;18.59;100.00;100527.63;5025731;28;20452;-82
2022/07/01 04:22:37;;;;;;;7.28;3.83;;;;;;;18.58;100.00;100531.50;5026975;28;20427;-81
2022/07/01 04:25:08;;;;;;;7.57;3.75;;;;;;;18.61;100.00;100519.81;5027795;28;21032;-82
2022/07/01 04:27:41;;;;;;;8.68;4.10;;;;;;;18.63;100.00;100524.97;5008658;28;20435;-84
2022/07/01 04:30:11;;;;;;;7.60;4.10;;;;;;;18.65;100.00;100520.75;5027076;28;20428;-83
2022/07/01 04:32:44;;;;;;;8.13;4.15;;;;;;;18.57;100.00;100524.38;5034363;28;20427;-83
2022/07/01 04:35:14;;;;;;;7.50;4.17;;;;;;;18.69;100.00;100532.69;5028448;28;20427;-83
2022/07/01 04:37:47;;;;;;;8.50;4.65;;;;;;;18.64;100.00;100535.69;5027497;28;20453;-83
2022/07/01 04:40:21;;;;;;;9.82;4.72;;;;;;;18.63;100.00;100542.34;5029657;28;20427;-83
2022/07/01 04:42:53;;;;;;;7.70;4.70;;;;;;;18.66;100.00;100540.88;5023193;28;20839;-82
2022/07/01 04:45:26;;;;;;;10.20;4.88;;;;;;;18.77;100.00;100552.28;5028532;28;20431;-83
2022/07/01 04:47:55;;;;;;;8.43;4.70;;;;;;;18.74;100.00;100544.66;5026252;28;20438;-83
2022/07/01 04:50:28;;;;;;;9.52;5.18;;;;;;;18.78;100.00;100548.34;5032382;28;20419;-83
2022/07/01 04:53:01;;;;;;;9.80;5.60;;;;;;;18.74;100.00;100548.25;5021302;28;20449;-83
2022/07/01 04:55:36;;;;;;;10.63;5.38;;;;;;;18.80;100.00;100559.88;5039885;28;20421;-82
2022/07/01 04:58:09;;;;;;;9.88;5.05;;;;;;;18.79;100.00;100569.28;5031392;28;20442;-82
2022/07/01 05:00:37;;;;;;;8.50;5.60;;;;;;;18.80;100.00;100568.94;5028080;28;20434;-84
2022/07/01 05:03:10;;;;;;;10.85;5.40;;;;;;;18.70;100.00;100572.13;5028446;28;20431;-82
2022/07/01 05:05:43;;;;;;;8.85;5.30;;;;;;;18.66;100.00;100571.19;5024275;28;20432;-83
2022/07/01 05:08:16;;;;;;;11.55;5.80;;;;;;;18.77;100.00;100579.84;5035096;28;20436;-83
2022/07/01 05:10:51;;;;;;;9.27;5.72;;;;;;;18.77;100.00;100582.59;5039343;28;20441;-83
2022/07/01 05:13:24;;;;;;;10.63;6.13;;;;;;;18.74;100.00;100584.09;5025001;28;20442;-83
2022/07/01 05:15:57;;;;;;;11.25;6.70;;;;;;;18.63;100.00;100599.41;5028971;28;20422;-83
2022/07/01 05:24:12;;;;;;;11.60;6.40;;;;;;;18.67;100.00;100685.78;5026629;28;20449;-83
2022/07/01 05:26:47;;;;;;;11.02;5.90;;;;;;;18.69;100.00;100709.13;5020087;28;20438;-81
2022/07/01 05:29:20;;;;;;;14.82;6.45;;;;;;;18.56;100.00;100720.38;5045224;28;20925;-81
2022/07/01 05:31:54;;;;;;;12.37;6.60;;;;;;;18.43;100.00;100723.06;5022028;28;20443;-80
2022/07/01 05:34:22;;;;;;;11.82;5.88;;;;;;;18.40;100.00;100720.97;5037065;28;20422;-80
2022/07/01 05:36:50;;;;;;;11.23;5.70;;;;;;;18.26;100.00;100706.63;5024123;28;20569;-80
2022/07/01 05:39:25;;;;;;;9.73;4.60;;;;;;;18.14;100.00;100694.34;5018732;28;20459;-83
2022/07/01 05:41:59;;;;;;;7.90;3.60;;;;;;;18.07;100.00;100696.00;5021192;28;20431;-82
2022/07/01 05:44:27;;;;;;;10.00;3.72;;;;;;;18.05;100.00;100690.00;5022017;28;20457;-82
2022/07/01 05:47:00;;;;;;;9.60;3.40;;;;;;;18.00;100.00;100691.00;5017187;28;20435;-80
2022/07/01 05:49:28;;;;;;;8.65;3.40;;;;;;;18.01;100.00;100695.38;5022171;28;20434;-80
2022/07/01 05:52:02;;;;;;;7.97;3.58;;;;;;;18.02;100.00;100677.72;5022905;28;20422;-79
2022/07/01 05:54:35;;;;;;;9.32;3.78;;;;;;;17.98;100.00;100657.47;5020395;28;21016;-80
2022/07/01 05:57:10;;;;;;;6.82;3.45;;;;;;;17.97;100.00;100659.44;5018082;28;20432;-81
2022/07/01 05:59:43;;;;;;;7.17;3.53;;;;;;;18.01;100.00;100657.63;5020764;28;20444;-81
2022/07/01 06:02:17;;;;;;;8.30;3.03;;;;;;;18.07;100.00;100671.22;5018782;28;20435;-82
2022/07/01 06:04:50;;;;;;;4.55;2.63;;;;;;;17.89;100.00;100660.25;5032962;28;20432;-80
2022/07/01 06:07:23;;;;;;;3.58;2.17;;;;;;;17.83;100.00;100667.09;5025147;28;20431;-81
2022/07/01 06:09:51;;;;;;;5.00;2.30;;;;;;;17.83;100.00;100665.13;5026423;28;20795;-81
2022/07/01 06:12:26;;;;;;;5.43;2.92;;;;;;;17.69;100.00;100675.56;5023586;28;20438;-80
2022/07/01 06:14:59;;;;;;;6.90;3.30;;;;;;;17.71;100.00;100672.47;5028589;28;20435;-80
2022/07/01 06:17:32;;;;;;;5.20;2.92;;;;;;;17.52;100.00;100690.13;5028702;28;20424;-81
2022/07/01 06:20:11;;;;;;;5.65;2.85;;;;;;;17.30;100.00;100675.47;5025863;28;20442;-81
2022/07/01 06:22:44;;;;;;;4.55;2.80;;;;;;;17.24;100.00;100684.22;5023058;28;20438;-81
2022/07/01 06:25:12;;;;;;;5.10;2.78;;;;;;;17.25;100.00;100703.13;5025188;28;20427;-83
2022/07/01 06:27:48;;;;;;;6.15;3.90;;;;;;;17.26;100.00;100713.00;5026272;28;21146;-81
2022/07/01 06:30:21;;;;;;;6.55;3.75;;;;;;;17.28;100.00;100716.22;5024471;28;20442;-80
2022/07/01 06:32:54;;;;;;;6.53;3.10;;;;;;;17.29;100.00;100703.28;4992686;28;20430;-81
2022/07/01 06:35:27;;;;;;;5.28;2.80;;;;;;;17.36;100.00;100686.28;5009235;28;20443;-81
2022/07/01 06:38:01;;;;;;;3.28;1.92;;;;;;;17.05;100.00;100682.59;4994360;28;20435;-79
2022/07/01 06:40:29;;;;;;;4.25;1.90;;;;;;;17.00;100.00;100710.25;4999837;28;20434;-80
2022/07/01 06:42:59;;;;;;;3.25;1.75;;;;;;;16.81;100.00;100696.78;4997072;28;21778;-81
2022/07/01 06:45:29;;;;;;;6.15;2.10;;;;;;;16.71;100.00;100689.66;4996707;28;20565;-80
2022/07/01 06:48:03;;;;;;;4.80;1.65;;;;;;;16.57;100.00;100662.31;5000276;28;20447;-86
2022/07/01 06:50:36;;;;;;;2.95;1.40;;;;;;;16.67;100.00;100681.25;5005898;28;21013;-79
2022/07/01 06:53:09;;;;;;;2.63;1.40;;;;;;;16.51;100.00;100693.81;5003512;28;20437;-80
2022/07/01 06:55:43;;;;;;;4.40;1.37;;;;;;;16.54;100.00;100673.94;5001509;28;21007;-80
2022/07/01 06:58:15;;;;;;;2.65;1.40;;;;;;;16.66;100.00;100665.06;5003819;28;20431;-80
2022/07/01 07:00:44;;;;;;;3.03;1.50;;;;;;;16.71;100.00;100677.84;5000681;28;20652;-80
2022/07/01 07:03:17;;;;;;;2.80;1.40;;;;;;;16.69;100.00;100658.13;5000340;28;20431;-81
2022/07/01 07:05:52;;;;;;;3.42;1.80;;;;;;;16.77;100.00;100647.13;5002355;28;20438;-81
2022/07/01 07:08:20;;;;;;;6.45;1.50;;;;;;;16.79;100.00;100655.06;5004239;28;20935;-80
2022/07/01 07:10:53;;;;;;;2.30;1.17;;;;;;;16.87;100.00;100678.19;4996356;28;20443;-80
2022/07/01 07:13:24;;;;;;;3.30;1.20;;;;;;;16.98;100.00;100699.56;5001167;28;20431;-79
2022/07/01 07:15:57;;;;;;;1.60;0.85;;;;;;;17.05;100.00;100715.56;5004635;28;20991;-80
2022/07/01 07:18:30;;;;;;;2.23;0.93;;;;;;;17.12;100.00;100734.34;5004561;28;20502;-80
2022/07/01 07:20:58;;;;;;;1.30;0.80;;;;;;;17.14;100.00;100734.84;4990947;28;20439;-80
2022/07/01 07:23:27;;;;;;;1.58;0.80;;;;;;;17.21;100.00;100735.16;4998812;28;20429;-80
2022/07/01 07:25:56;;;;;;;1.47;0.70;;;;;;;17.14;100.00;100727.41;5010512;28;20624;-80
2022/07/01 07:28:30;;;;;;;3.90;1.60;;;;;;;17.19;100.00;100734.66;4988890;28;20434;-81
2022/07/01 07:31:04;;;;;;;2.75;0.70;;;;;;;17.20;100.00;100741.78;4990000;28;20438;-80
2022/07/01 07:33:37;;;;;;;1.87;0.70;;;;;;;17.10;100.00;100759.41;4989011;28;20928;-80
2022/07/01 07:36:10;;;;;;;2.30;0.70;;;;;;;17.27;100.00;100766.84;4997270;28;20439;-80
2022/07/01 07:38:44;;;;;;;1.63;0.77;;;;;;;17.15;100.00;100773.00;4990354;28;20431;-80
2022/07/01 07:41:17;;;;;;;1.02;0.60;;;;;;;16.99;100.00;100769.91;4987746;28;20423;-79
2022/07/01 07:43:47;;;;;;;1.43;0.73;;;;;;;17.06;100.00;100796.13;4987590;28;20433;-80
2022/07/01 07:46:22;;;;;;;0.95;0.68;;;;;;;17.04;100.00;100793.72;4994465;28;20856;-80
2022/07/01 07:48:50;;;;;;;1.52;0.70;;;;;;;17.00;100.00;100795.47;4993259;28;20939;-80
2022/07/01 07:51:24;;;;;;;1.57;0.60;;;;;;;16.90;100.00;100795.78;4998502;28;20459;-80
2022/07/01 07:53:57;;;;;;;0.80;0.60;;;;;;;16.87;100.00;100802.69;4995496;28;20435;-82
2022/07/01 07:56:25;;;;;;;1.00;0.60;;;;;;;16.74;100.00;100798.13;4992426;28;20510;-81
2022/07/01 07:59:00;;;;;;;1.17;0.60;;;;;;;16.64;100.00;100794.53;5001760;28;21878;-81
2022/07/01 08:01:33;;;;;;;1.27;0.60;;;;;;;16.55;100.00;100792.91;4998138;28;20441;-79
2022/07/01 08:04:06;;;;;;;3.60;1.23;;;;;;;16.70;100.00;100806.19;4988711;28;20935;-80
2022/07/01 08:06:40;;;;;;;2.35;0.68;;;;;;;16.62;100.00;100801.47;4991312;28;20890;-80
2022/07/01 08:09:08;;;;;;;1.70;0.90;;;;;;;16.75;100.00;100818.97;4994135;28;20433;-80
2022/07/01 08:11:36;;;;;;;0.80;0.60;;;;;;;16.76;100.00;100809.59;4991934;28;20427;-81
2022/07/01 08:14:11;;;;;;;1.00;0.60;;;;;;;16.70;100.00;100799.91;4987320;28;20439;-81
2022/07/01 08:16:44;;;;;;;1.35;0.60;;;;;;;16.79;100.00;100801.53;4993174;28;20431;-81
2022/07/01 08:19:17;;;;;;;1.30;0.70;;;;;;;16.89;100.00;100797.72;4994722;28;20430;-81
2022/07/01 08:21:50;;;;;;;1.02;0.60;;;;;;;16.72;100.00;100800.38;4990272;28;20431;-81
2022/07/01 08:24:24;;;;;;;2.10;0.80;;;;;;;16.79;100.00;100811.72;4997868;28;20931;-80
2022/07/01 08:26:57;;;;;;;1.42;0.80;;;;;;;16.70;100.00;100803.44;4991785;28;20431;-81
2022/07/01 08:29:31;;;;;;;1.30;0.70;;;;;;;16.75;100.00;100803.31;4992024;28;20478;-81
2022/07/01 08:32:00;;;;;;;2.17;0.85;;;;;;;16.76;100.00;100804.91;4996630;28;20434;-82
2022/07/01 08:34:33;;;;;;;1.75;0.85;;;;;;;16.76;100.00;100807.66;4995591;28;20640;-81
2022/07/01 08:37:06;;;;;;;1.60;0.90;;;;;;;16.75;100.00;100792.31;5004029;28;20432;-81
2022/07/01 08:39:39;;;;;;;3.53;1.90;;;;;;;16.78;100.00;100805.41;4990978;28;20449;-81
2022/07/01 08:42:13;;;;;;;3.33;1.10;;;;;;;16.83;100.00;100798.94;4997687;28;20434;-80
2022/07/01 08:44:49;;;;;;;1.85;1.20;;;;;;;16.82;100.00;100806.41;5012724;28;20446;-86
2022/07/01 08:47:22;;;;;;;2.30;1.35;;;;;;;16.76;100.00;100793.91;5014311;28;20430;-81
2022/07/01 08:49:50;;;;;;;3.13;1.13;;;;;;;16.61;100.00;100797.09;5003381;28;21017;-81
2022/07/01 08:52:18;;;;;;;2.38;1.30;;;;;;;16.65;100.00;100812.66;4997862;28;20804;-81
2022/07/01 08:54:47;;;;;;;1.88;1.08;;;;;;;16.62;100.00;100816.00;4996226;28;20426;-82
2022/07/01 08:57:20;;;;;;;3.45;1.45;;;;;;;16.60;100.00;100823.78;5008391;28;20418;-81
2022/07/01 09:00:07;;;;;;;1.88;1.13;;;;;;;16.69;100.00;100820.25;5004904;28;20431;-81
2022/07/01 09:02:55;;;;;;;2.80;1.30;;;;;;;16.61;100.00;100821.84;4997035;28;20450;-82
2022/07/01 09:05:30;;;;;;;2.67;1.30;;;;;;;16.71;100.00;100838.06;4999865;28;20426;-81
2022/07/01 09:08:05;;;;;;;3.60;1.50;;;;;;;16.37;100.00;100833.22;4992597;28;21168;-83
2022/07/01 09:10:39;;;;;;;2.30;1.40;;;;;;;16.35;100.00;100841.78;4993423;28;20435;-81
2022/07/01 09:13:13;;;;;;;2.47;1.40;;;;;;;16.20;100.00;100844.88;5001070;28;21599;-81
2022/07/01 09:15:48;;;;;;;4.60;2.63;;;;;;;15.97;100.00;100845.72;4997665;28;20439;-82
2022/07/01 09:18:21;;;;;;;3.85;1.70;;;;;;;16.07;100.00;100844.66;5000305;28;20442;-82
2022/07/01 09:20:54;;;;;;;2.80;1.40;;;;;;;15.91;100.00;100841.50;4991108;28;20943;-81
2022/07/01 09:23:32;;;;;;;2.70;1.70;;;;;;;16.04;100.00;100849.97;4994237;28;20916;-81
2022/07/01 09:26:06;;;;;;;3.38;1.50;;;;;;;16.10;100.00;100854.19;4999188;28;20435;-82
2022/07/01 09:28:39;;;;;;;2.80;1.40;;;;;;;16.04;100.00;100849.97;4996083;28;20429;-81
2022/07/01 09:31:14;;;;;;;2.65;1.48;;;;;;;16.21;100.00;100863.00;4994290;28;20431;-82
2022/07/01 09:34:03;;;;;;;2.57;1.30;;;;;;;16.09;100.00;100866.31;4993736;28;20438;-82
2022/07/01 09:36:31;;;;;;;3.20;1.70;;;;;;;16.12;100.00;100866.50;4993274;28;20426;-81
2022/07/01 09:39:06;;;;;;;3.47;1.40;;;;;;;16.17;100.00;100864.75;4993250;28;21427;-82
2022/07/01 09:41:40;;;;;;;3.10;1.40;;;;;;;16.26;100.00;100860.13;4990768;28;20435;-81
2022/07/01 09:44:13;;;;;;;3.05;1.55;;;;;;;16.23;100.00;100869.00;5003395;28;20970;-82
2022/07/01 09:46:55;;;;;;;3.70;1.63;;;;;;;16.09;100.00;100875.34;4998108;28;21390;-81
2022/07/01 09:49:23;;;;;;;3.03;1.60;;;;;;;16.15;100.00;100884.28;4998464;28;20434;-82
2022/07/01 09:51:56;;;;;;;2.67;1.60;;;;;;;16.19;100.00;100895.47;4995450;28;20438;-82
2022/07/01 09:54:30;;;;;;;2.90;1.73;;;;;;;16.09;100.00;100899.28;4999911;28;20427;-82
2022/07/01 09:56:58;;;;;;;4.32;2.00;;;;;;;16.05;100.00;100906.50;4996851;28;21034;-82
2022/07/01 09:59:32;;;;;;;4.47;2.20;;;;;;;15.93;100.00;100909.78;4991730;28;20427;-81
2022/07/01 10:02:08;;;;;;;3.67;2.30;;;;;;;15.94;100.00;100917.72;4993867;28;20441;-81
2022/07/01 10:04:48;;;;;;;3.30;2.20;;;;;;;15.84;100.00;100928.09;5010900;28;21330;-80
2022/07/01 10:07:37;;;;;;;3.85;2.00;;;;;;;15.89;100.00;100933.47;5002618;28;21127;-81
2022/07/01 10:10:28;;;;;;;4.35;1.90;;;;;;;15.89;100.00;100942.53;5000088;28;20992;-81
2022/07/01 10:13:03;;;;;;;6.13;2.10;;;;;;;15.89;100.00;100936.22;5002141;28;20945;-81
2022/07/01 10:15:37;;;;;;;4.50;2.40;;;;;;;15.84;100.00;100937.16;4994265;28;21053;-80
2022/07/01 10:18:22;;;;;;;4.05;2.38;;;;;;;15.76;100.00;100935.94;4992580;28;20982;-80
2022/07/01 10:20:57;;;;;;;3.92;2.30;;;;;;;15.77;100.00;100940.31;4996286;28;21316;-81
2022/07/01 10:23:39;;;;;;;4.63;2.40;;;;;;;15.63;100.00;100926.63;4995264;28;21486;-81
2022/07/01 10:26:13;;;;;;;5.47;2.30;;;;;;;15.58;100.00;100942.38;4996550;28;20434;-80
2022/07/01 10:28:43;;;;;;;3.95;2.40;;;;;;;15.58;100.00;100948.66;5001624;28;20453;-80
2022/07/01 10:31:18;;;;;;;3.83;2.13;;;;;;;15.63;100.00;100956.78;4998440;28;21146;-80
2022/07/01 10:33:57;;;;;;;4.50;2.10;;;;;;;15.67;100.00;100972.63;4995119;28;20792;-80
2022/07/01 10:36:32;;;;;;;4.07;2.28;;;;;;;15.58;100.00;100978.84;4996331;28;20438;-80
2022/07/01 10:39:25;;;;;;;3.97;2.40;;;;;;;15.61;100.00;100977.41;5006276;28;20919;-80
2022/07/01 10:42:02;;;;;;;3.30;2.25;;;;;;;15.71;100.00;100979.13;4997750;28;20437;-81
2022/07/01 10:44:36;;;;;;;2.90;2.00;;;;;;;15.71;100.00;100976.38;4999774;28;20442;-80
2022/07/01 10:47:10;;;;;;;4.68;2.20;;;;;;;15.56;100.00;100974.78;5001921;28;20442;-79
2022/07/01 10:49:57;;;;;;;3.53;2.28;;;;;;;15.68;100.00;100972.31;4998816;28;20419;-81
2022/07/01 10:52:30;;;;;;;4.07;2.30;;;;;;;15.60;100.00;100973.84;4999667;28;21002;-81
2022/07/01 10:55:06;;;;;;;5.03;2.30;;;;;;;15.55;100.00;100975.88;5002649;28;20437;-81
2022/07/01 10:57:39;;;;;;;4.55;2.30;;;;;;;15.68;100.00;100979.75;4998115;28;20435;-81
2022/07/01 11:00:38;;;;;;;3.10;2.17;;;;;;;15.56;100.00;100985.75;5011386;28;20429;-81
2022/07/01 11:03:19;;;;;;;4.32;2.33;;;;;;;15.44;100.00;100986.28;5022937;28;20430;-81
2022/07/01 11:05:55;;;;;;;3.90;2.58;;;;;;;15.49;100.00;100994.38;5023090;28;20783;-81
2022/07/01 11:08:28;;;;;;;4.18;2.50;;;;;;;15.51;100.00;100988.59;5029475;28;20435;-80
2022/07/01 11:11:04;;;;;;;4.05;2.45;;;;;;;15.61;100.00;101004.84;5023624;28;20430;-82
2022/07/01 11:13:35;;;;;;;6.50;2.50;;;;;;;15.60;100.00;101019.69;5029399;28;20422;-80
2022/07/01 11:16:09;;;;;;;4.30;2.50;;;;;;;15.50;100.00;101014.41;5021440;28;20442;-81
2022/07/01 11:18:42;;;;;;;4.00;2.40;;;;;;;15.52;100.00;101020.38;5029380;28;20777;-81
2022/07/01 11:21:17;;;;;;;3.30;2.10;;;;;;;15.41;100.00;101026.09;5022284;28;20435;-80
2022/07/01 11:23:54;;;;;;;5.03;2.00;;;;;;;15.28;100.00;101027.69;5024926;28;20457;-80
2022/07/01 11:26:27;;;;;;;3.60;2.40;;;;;;;15.25;100.00;101038.47;5021183;28;20434;-81
2022/07/01 11:29:00;;;;;;;4.15;2.30;;;;;;;15.19;100.00;101034.19;5022169;28;20457;-81
2022/07/01 11:31:31;;;;;;;4.63;2.40;;;;;;;15.33;100.00;101037.75;5023188;28;20461;-81
2022/07/01 11:34:05;;;;;;;6.23;2.60;;;;;;;15.30;100.00;101041.09;5023222;28;20431;-80
2022/07/01 11:39:35;;;;;;;4.53;2.58;;;;;;;15.33;100.00;101047.91;5021718;28;20899;-81
2022/07/01 11:42:11;;;;;;;4.82;2.92;;;;;;;15.45;100.00;101051.78;5029191;28;20417;-81
2022/07/01 11:44:45;;;;;;;4.90;2.70;;;;;;;15.50;100.00;101047.31;5026569;28;20431;-81
2022/07/01 11:47:24;;;;;;;7.83;2.50;;;;;;;15.41;100.00;101049.94;5021284;28;20928;-81
2022/07/01 11:49:52;;;;;;;4.00;2.47;;;;;;;15.28;100.00;101044.13;5023683;28;20427;-79
2022/07/01 11:52:24;;;;;;;4.18;2.70;;;;;;;15.36;100.00;101045.38;5020958;28;20435;-81
2022/07/01 11:54:54;;;;;;;4.28;2.60;;;;;;;15.50;100.00;101053.63;5000806;28;20439;-83